createdAt,value
2023-05-05T00:01:07.072Z,10.18
2023-05-05T00:03:51.870Z,10.23
2023-05-05T00:06:35.205Z,10.21
2023-05-05T00:09:18.622Z,10.24
2023-05-05T00:12:01.845Z,10.30
2023-05-05T00:14:45.043Z,10.32
2023-05-05T00:17:28.378Z,10.37
2023-05-05T00:20:14.300Z,10.42
2023-05-05T00:22:57.564Z,10.41
2023-05-05T00:25:41.643Z,10.30
2023-05-05T00:28:24.987Z,10.11
2023-05-05T00:31:08.866Z,9.97
2023-05-05T00:33:52.284Z,9.67
2023-05-05T00:36:37.080Z,9.58
2023-05-05T00:39:20.459Z,9.39
2023-05-05T00:42:03.736Z,9.34
2023-05-05T00:44:47.235Z,9.12
2023-05-05T00:47:30.878Z,9.02
2023-05-05T00:50:22.880Z,8.91
2023-05-05T00:53:08.508Z,8.78
2023-05-05T00:55:52.212Z,8.77
2023-05-05T00:58:36.114Z,8.73
2023-05-05T01:01:19.780Z,8.62
2023-05-05T01:04:03.013Z,8.37
2023-05-05T01:06:55.560Z,8.42
2023-05-05T01:09:57.967Z,8.41
2023-05-05T01:12:55.251Z,8.31
2023-05-05T01:15:45.496Z,8.30
2023-05-05T01:18:36.316Z,8.27
2023-05-05T01:21:24.574Z,8.28
2023-05-05T01:24:24.762Z,8.25
2023-05-05T01:27:35.386Z,8.12
2023-05-05T01:30:29.951Z,8.10
2023-05-05T01:33:19.959Z,8.04
2023-05-05T01:36:08.968Z,8.02
2023-05-05T01:38:58.709Z,7.95
2023-05-05T01:41:45.548Z,7.73
2023-05-05T01:44:31.392Z,7.64
2023-05-05T01:47:17.995Z,7.52
2023-05-05T01:50:04.171Z,7.55
2023-05-05T01:52:48.907Z,7.55
2023-05-05T01:55:33.757Z,7.61
2023-05-05T01:58:18.576Z,7.72
2023-05-05T02:01:03.331Z,7.79
2023-05-05T02:03:48.420Z,7.85
2023-05-05T02:06:34.953Z,8.07
2023-05-05T02:09:18.693Z,8.25
2023-05-05T02:12:03.359Z,8.34
2023-05-05T02:14:48.572Z,8.44
2023-05-05T02:17:32.768Z,8.59
2023-05-05T02:20:17.457Z,8.57
2023-05-05T02:23:05.949Z,8.62
2023-05-05T02:25:53.784Z,8.76
2023-05-05T02:28:42.797Z,8.81
2023-05-05T02:31:29.123Z,8.82
2023-05-05T02:34:14.776Z,8.98
2023-05-05T02:37:02.095Z,8.92
2023-05-05T02:39:58.907Z,9.03
2023-05-05T02:42:44.645Z,9.09
2023-05-05T02:45:30.407Z,9.24
2023-05-05T02:48:14.176Z,9.23
2023-05-05T02:51:04.739Z,9.24
2023-05-05T02:53:48.629Z,9.33
2023-05-05T02:56:42.104Z,9.38
2023-05-05T02:59:36.782Z,9.39
2023-05-05T03:02:29.407Z,9.47
2023-05-05T03:05:18.931Z,9.55
2023-05-05T03:08:05.372Z,9.63
2023-05-05T03:11:01.351Z,9.62
2023-05-05T03:13:51.557Z,9.63
2023-05-05T03:16:37.526Z,9.69
2023-05-05T03:19:22.533Z,9.73
2023-05-05T03:22:08.459Z,9.75
2023-05-05T03:24:51.925Z,9.83
2023-05-05T03:27:37.734Z,9.93
2023-05-05T03:30:22.581Z,9.84
2023-05-05T03:33:06.156Z,9.93
2023-05-05T03:35:49.447Z,9.95
2023-05-05T03:38:33.610Z,9.89
2023-05-05T03:41:16.953Z,9.95
2023-05-05T03:44:00.078Z,9.94
2023-05-05T03:46:44.702Z,9.91
2023-05-05T03:49:27.953Z,9.99
2023-05-05T03:52:15.088Z,10.12
2023-05-05T03:55:00.198Z,10.13
2023-05-05T03:57:43.371Z,10.27
2023-05-05T04:00:29.108Z,10.35
2023-05-05T04:03:13.918Z,10.46
2023-05-05T04:05:58.530Z,10.57
2023-05-05T04:08:41.686Z,10.64
2023-05-05T04:11:26.413Z,10.73
2023-05-05T04:14:10.632Z,10.79
2023-05-05T04:16:54.681Z,10.96
2023-05-05T04:19:39.288Z,10.98
2023-05-05T04:22:25.001Z,11.09
2023-05-05T04:25:09.166Z,11.18
2023-05-05T04:27:52.739Z,11.23
2023-05-05T04:30:38.853Z,11.02
2023-05-05T04:33:22.127Z,11.09
2023-05-05T04:36:07.347Z,11.21
2023-05-05T04:38:50.867Z,11.21
2023-05-05T04:41:34.180Z,11.25
2023-05-05T04:44:17.335Z,11.30
2023-05-05T04:47:02.028Z,11.01
2023-05-05T04:49:46.228Z,11.27
2023-05-05T04:52:30.974Z,11.23
2023-05-05T04:55:14.492Z,11.20
2023-05-05T04:57:57.710Z,11.27
2023-05-05T05:00:40.993Z,11.31
2023-05-05T05:03:24.500Z,11.43
2023-05-05T05:06:07.966Z,11.50
2023-05-05T05:08:54.990Z,11.53
2023-05-05T05:11:40.684Z,11.61
2023-05-05T05:14:24.058Z,11.71
2023-05-05T05:17:07.288Z,11.75
2023-05-05T05:19:50.438Z,11.94
2023-05-05T05:22:34.933Z,12.07
2023-05-05T05:25:19.628Z,12.22
2023-05-05T05:28:10.182Z,12.45
2023-05-05T05:30:54.324Z,12.62
2023-05-05T05:33:37.602Z,12.83
2023-05-05T05:36:20.837Z,12.86
2023-05-05T05:39:05.472Z,13.33
2023-05-05T05:41:50.245Z,13.60
2023-05-05T05:44:33.744Z,13.63
2023-05-05T05:47:18.307Z,13.85
2023-05-05T05:50:01.613Z,14.18
2023-05-05T05:52:44.777Z,14.45
2023-05-05T05:55:28.307Z,14.52
2023-05-05T05:58:12.948Z,14.43
2023-05-05T06:00:56.474Z,14.45
2023-05-05T06:03:39.776Z,14.30
2023-05-05T06:06:23.854Z,14.47
2023-05-05T06:09:06.964Z,14.64
2023-05-05T06:11:50.173Z,14.69
2023-05-05T06:14:34.794Z,14.33
2023-05-05T06:17:17.945Z,14.54
2023-05-05T06:20:01.135Z,14.85
2023-05-05T06:22:44.608Z,14.82
2023-05-05T06:25:28.291Z,14.61
2023-05-05T06:28:11.531Z,14.90
2023-05-05T06:30:56.672Z,15.04
2023-05-05T06:33:39.838Z,14.74
2023-05-05T06:36:23.156Z,14.46
2023-05-05T06:39:09.434Z,14.69
2023-05-05T06:41:52.576Z,14.29
2023-05-05T06:44:37.655Z,14.51
2023-05-05T06:47:22.355Z,14.69
2023-05-05T06:50:06.309Z,14.83
2023-05-05T06:52:49.766Z,15.05
2023-05-05T06:55:35.052Z,15.42
2023-05-05T06:58:20.703Z,15.86
2023-05-05T07:01:04.187Z,15.86
2023-05-05T07:03:50.172Z,16.24
2023-05-05T07:06:35.966Z,16.61
2023-05-05T07:09:21.550Z,17.14
2023-05-05T07:12:05.483Z,17.60
2023-05-05T07:14:48.591Z,17.60
2023-05-05T07:17:31.853Z,17.30
2023-05-05T07:20:17.715Z,17.27
2023-05-05T07:23:01.480Z,17.40
2023-05-05T07:25:45.133Z,16.66
2023-05-05T07:28:36.091Z,17.16
2023-05-05T07:31:19.788Z,16.94
2023-05-05T07:34:03.015Z,17.20
2023-05-05T07:36:47.802Z,17.87
2023-05-05T07:39:31.319Z,17.69
2023-05-05T07:42:14.807Z,18.74
2023-05-05T07:44:58.358Z,19.00
2023-05-05T07:47:41.764Z,18.93
2023-05-05T07:50:25.219Z,19.51
2023-05-05T07:53:14.386Z,19.77
2023-05-05T07:55:57.854Z,20.84
2023-05-05T07:58:41.035Z,21.16
2023-05-05T08:01:24.296Z,27.26
2023-05-05T08:04:08.105Z,31.48
2023-05-05T08:06:51.272Z,34.23
2023-05-05T08:09:36.033Z,32.34
2023-05-05T08:12:21.871Z,34.51
2023-05-05T08:15:05.487Z,35.66
2023-05-05T08:17:49.384Z,32.74
2023-05-05T08:20:32.896Z,34.07
2023-05-05T08:23:16.284Z,35.32
2023-05-05T08:26:00.862Z,33.86
2023-05-05T08:28:44.249Z,37.41
2023-05-05T08:31:27.791Z,39.06
2023-05-05T08:34:11.322Z,40.44
2023-05-05T08:36:54.731Z,40.14
2023-05-05T08:39:38.115Z,41.42
2023-05-05T08:42:33.221Z,43.23
2023-05-05T08:45:20.013Z,44.44
2023-05-05T08:48:05.981Z,41.79
2023-05-05T08:50:59.536Z,41.17
2023-05-05T08:53:50.207Z,40.24
2023-05-05T08:56:36.364Z,40.14
2023-05-05T08:59:25.301Z,39.76
2023-05-05T09:02:10.092Z,37.52
2023-05-05T09:04:53.563Z,34.55
2023-05-05T09:07:37.716Z,37.72
2023-05-05T09:10:21.581Z,39.39
2023-05-05T09:13:10.113Z,37.89
2023-05-05T09:15:54.800Z,32.84
2023-05-05T09:18:41.124Z,29.90
2023-05-05T09:21:26.136Z,31.31
2023-05-05T09:24:11.050Z,29.78
2023-05-05T09:26:56.937Z,28.04
2023-05-05T09:29:41.731Z,27.58
2023-05-05T09:32:30.574Z,30.75
2023-05-05T09:35:14.437Z,35.38
2023-05-05T09:37:58.450Z,34.55
2023-05-05T09:40:47.729Z,34.92
2023-05-05T09:43:30.816Z,39.36
2023-05-05T09:46:14.391Z,40.90
2023-05-05T09:49:12.790Z,38.76
2023-05-05T09:51:56.264Z,36.21
2023-05-05T09:54:39.802Z,37.10
2023-05-05T09:57:30.722Z,39.82
2023-05-05T10:00:15.750Z,44.13
2023-05-05T10:03:04.124Z,39.13
2023-05-05T10:05:54.156Z,33.65
2023-05-05T10:08:37.598Z,30.12
2023-05-05T10:11:21.015Z,30.06
2023-05-05T10:14:08.110Z,34.39
2023-05-05T10:16:52.882Z,36.89
2023-05-05T10:19:37.203Z,37.66
2023-05-05T10:22:24.509Z,33.65
2023-05-05T10:25:12.688Z,34.36
2023-05-05T10:28:02.997Z,39.51
2023-05-05T10:30:50.454Z,38.37
2023-05-05T10:33:43.175Z,33.66
2023-05-05T10:36:28.087Z,30.14
2023-05-05T10:39:13.186Z,29.31
2023-05-05T10:41:56.549Z,28.35
2023-05-05T10:44:42.386Z,28.58
2023-05-05T10:47:28.310Z,26.54
2023-05-05T10:50:26.408Z,26.38
2023-05-05T10:53:18.556Z,26.10
2023-05-05T10:56:07.655Z,24.70
2023-05-05T10:58:59.746Z,25.44
2023-05-05T11:01:44.353Z,24.61
2023-05-05T11:04:28.204Z,24.24
2023-05-05T11:07:26.039Z,24.69
2023-05-05T11:10:11.227Z,25.33
2023-05-05T11:13:21.581Z,25.05
2023-05-05T11:16:07.066Z,24.21
2023-05-05T11:18:50.488Z,22.13
2023-05-05T11:22:03.150Z,22.41
2023-05-05T11:24:47.391Z,21.71
2023-05-05T11:28:02.988Z,21.91
2023-05-05T11:31:19.260Z,21.47
2023-05-05T11:34:29.201Z,21.97
2023-05-05T11:37:12.754Z,21.58
2023-05-05T11:40:11.674Z,21.27
2023-05-05T11:43:05.971Z,20.54
2023-05-05T11:45:49.197Z,19.90
2023-05-05T11:48:36.678Z,19.27
2023-05-05T11:51:22.409Z,18.92
2023-05-05T11:54:20.023Z,18.92
2023-05-05T11:57:05.687Z,18.91
2023-05-05T11:59:54.408Z,18.72
2023-05-05T12:02:37.775Z,18.63
2023-05-05T12:05:22.241Z,18.66
2023-05-05T12:08:08.986Z,18.88
2023-05-05T12:10:52.306Z,19.26
2023-05-05T12:13:36.132Z,19.46
2023-05-05T12:16:20.177Z,19.54
2023-05-05T12:19:07.708Z,19.65
2023-05-05T12:21:51.050Z,19.72
2023-05-05T12:24:38.483Z,19.64
2023-05-05T12:27:22.072Z,19.76
2023-05-05T12:30:16.970Z,19.62
2023-05-05T12:33:04.450Z,19.55
2023-05-05T12:35:58.139Z,18.92
2023-05-05T12:38:42.018Z,18.98
2023-05-05T12:42:15.119Z,19.13
2023-05-05T12:44:59.741Z,19.05
2023-05-05T12:47:44.166Z,18.69
2023-05-05T12:50:33.800Z,18.70
2023-05-05T12:53:23.040Z,18.42
2023-05-05T12:56:06.488Z,18.30
2023-05-05T12:58:50.083Z,18.24
2023-05-05T13:01:36.021Z,18.09
2023-05-05T13:04:20.180Z,18.11
2023-05-05T13:07:14.021Z,17.85
2023-05-05T13:10:10.682Z,17.66
2023-05-05T13:12:56.756Z,17.80
2023-05-05T13:15:40.315Z,18.14
2023-05-05T13:18:25.214Z,18.15
2023-05-05T13:21:08.601Z,17.89
2023-05-05T13:23:52.175Z,17.75
2023-05-05T13:26:35.891Z,17.84
2023-05-05T13:29:19.798Z,17.46
2023-05-05T13:32:03.049Z,17.31
2023-05-05T13:34:47.803Z,17.34
2023-05-05T13:37:31.049Z,17.41
2023-05-05T13:40:15.392Z,17.30
2023-05-05T13:42:58.893Z,17.38
2023-05-05T13:46:02.789Z,17.97
2023-05-05T13:48:56.387Z,18.57
2023-05-05T13:51:41.881Z,18.92
2023-05-05T13:54:25.228Z,18.72
2023-05-05T13:57:09.013Z,19.13
2023-05-05T13:59:52.270Z,19.52
2023-05-05T14:02:36.116Z,19.16
2023-05-05T14:05:19.573Z,19.03
2023-05-05T14:08:04.609Z,19.16
2023-05-05T14:10:48.629Z,18.88
2023-05-05T14:13:34.173Z,19.01
2023-05-05T14:16:17.614Z,18.65
2023-05-05T14:19:01.039Z,18.28
2023-05-05T14:21:44.329Z,18.01
2023-05-05T14:24:29.088Z,17.59
2023-05-05T14:27:12.550Z,17.69
2023-05-05T14:30:03.870Z,17.48
2023-05-05T14:32:47.429Z,17.74
2023-05-05T14:35:31.643Z,17.72
2023-05-05T14:38:21.030Z,17.58
2023-05-05T14:41:06.901Z,17.76
2023-05-05T14:43:53.195Z,17.99
2023-05-05T14:46:36.564Z,17.74
2023-05-05T14:49:19.772Z,17.61
2023-05-05T14:52:03.086Z,17.38
2023-05-05T14:54:50.012Z,17.31
2023-05-05T14:57:34.882Z,17.21
2023-05-05T15:00:18.648Z,17.10
2023-05-05T15:03:02.009Z,16.82
2023-05-05T15:05:47.546Z,16.77
2023-05-05T15:08:31.053Z,16.63
2023-05-05T15:11:15.118Z,16.58
2023-05-05T15:13:59.999Z,16.49
2023-05-05T15:16:43.376Z,16.58
2023-05-05T15:19:26.712Z,16.61
2023-05-05T15:22:09.881Z,16.30
2023-05-05T15:24:53.356Z,16.27
2023-05-05T15:27:38.179Z,16.24
2023-05-05T15:30:25.397Z,16.38
2023-05-05T15:33:08.582Z,16.55
2023-05-05T15:35:51.810Z,16.43
2023-05-05T15:38:35.263Z,16.57
2023-05-05T15:42:12.700Z,16.43
2023-05-05T15:44:56.119Z,16.07
2023-05-05T15:47:42.050Z,15.87
2023-05-05T15:50:25.364Z,15.85
2023-05-05T15:53:08.628Z,15.63
2023-05-05T15:55:52.069Z,15.66
2023-05-05T15:58:36.751Z,15.75
2023-05-05T16:01:20.394Z,15.56
2023-05-05T16:04:05.512Z,15.53
2023-05-05T16:06:56.161Z,15.48
2023-05-05T16:09:39.386Z,15.36
2023-05-05T16:12:22.987Z,15.30
2023-05-05T16:15:07.433Z,15.35
2023-05-05T16:17:51.638Z,15.19
2023-05-05T16:20:36.280Z,15.22
2023-05-05T16:23:19.761Z,15.19
2023-05-05T16:26:04.170Z,15.03
2023-05-05T16:28:47.338Z,14.99
2023-05-05T16:31:34.004Z,15.00
2023-05-05T16:34:17.589Z,14.91
2023-05-05T16:37:02.647Z,14.86
2023-05-05T16:39:48.111Z,14.77
2023-05-05T16:42:31.218Z,14.63
2023-05-05T16:45:17.572Z,14.68
2023-05-05T16:48:02.290Z,14.55
2023-05-05T16:50:45.882Z,14.37
2023-05-05T16:53:30.734Z,14.36
2023-05-05T16:56:14.023Z,14.34
2023-05-05T16:58:57.213Z,14.26
2023-05-05T17:01:40.497Z,14.12
2023-05-05T17:04:23.693Z,14.07
2023-05-05T17:07:07.326Z,13.93
2023-05-05T17:09:52.108Z,13.93
2023-05-05T17:12:38.958Z,13.81
2023-05-05T17:15:22.452Z,13.74
2023-05-05T17:18:06.537Z,13.73
2023-05-05T17:20:51.448Z,13.66
2023-05-05T17:23:42.038Z,13.61
2023-05-05T17:26:27.854Z,13.56
2023-05-05T17:29:15.507Z,13.48
2023-05-05T17:31:58.775Z,13.43
2023-05-05T17:34:42.606Z,13.26
2023-05-05T17:37:26.565Z,13.03
2023-05-05T17:40:10.450Z,12.98
2023-05-05T17:42:55.261Z,12.91
2023-05-05T17:45:38.853Z,12.92
2023-05-05T17:48:22.232Z,12.77
2023-05-05T17:51:06.014Z,12.75
2023-05-05T17:53:51.050Z,12.66
2023-05-05T17:56:37.192Z,12.64
2023-05-05T17:59:22.121Z,12.53
2023-05-05T18:02:05.942Z,12.41
2023-05-05T18:04:49.297Z,12.40
2023-05-05T18:07:33.709Z,12.37
2023-05-05T18:10:16.856Z,12.33
2023-05-05T18:13:00.046Z,12.37
2023-05-05T18:15:45.022Z,12.27
2023-05-05T18:18:28.553Z,12.18
2023-05-05T18:21:12.383Z,12.08
2023-05-05T18:24:01.694Z,12.04
2023-05-05T18:26:52.662Z,12.02
2023-05-05T18:29:37.525Z,11.94
2023-05-05T18:32:22.409Z,11.96
2023-05-05T18:35:06.525Z,11.93
2023-05-05T18:37:50.349Z,11.94
2023-05-05T18:40:33.658Z,11.89
2023-05-05T18:43:16.881Z,11.88
2023-05-05T18:46:00.333Z,11.88
2023-05-05T18:48:44.959Z,11.88
2023-05-05T18:51:28.809Z,11.86
2023-05-05T18:54:12.080Z,11.80
2023-05-05T18:56:55.246Z,11.82
2023-05-05T18:59:38.661Z,11.81
2023-05-05T19:02:24.093Z,11.77
2023-05-05T19:05:10.240Z,11.77
2023-05-05T19:07:55.408Z,11.80
2023-05-05T19:10:39.173Z,11.74
2023-05-05T19:13:23.717Z,11.64
2023-05-05T19:16:07.690Z,11.50
2023-05-05T19:18:51.285Z,11.47
2023-05-05T19:21:36.003Z,11.41
2023-05-05T19:24:19.234Z,11.38
2023-05-05T19:27:04.023Z,11.33
2023-05-05T19:29:49.356Z,11.33
2023-05-05T19:32:33.182Z,11.24
2023-05-05T19:35:18.892Z,11.23
2023-05-05T19:38:03.434Z,11.12
2023-05-05T19:40:46.845Z,11.07
2023-05-05T19:43:30.277Z,11.01
2023-05-05T19:46:14.032Z,10.93
2023-05-05T19:48:57.510Z,10.56
2023-05-05T19:51:43.361Z,10.64
2023-05-05T19:54:29.196Z,10.59
2023-05-05T19:57:12.755Z,10.52
2023-05-05T19:59:56.185Z,10.57
2023-05-05T20:02:39.820Z,10.56
2023-05-05T20:05:23.487Z,10.49
2023-05-05T20:08:07.341Z,10.41
2023-05-05T20:10:53.350Z,10.44
2023-05-05T20:13:38.287Z,10.42
2023-05-05T20:16:24.900Z,10.37
2023-05-05T20:19:08.108Z,10.31
2023-05-05T20:21:51.252Z,10.21
2023-05-05T20:24:34.671Z,10.25
2023-05-05T20:27:19.432Z,10.08
2023-05-05T20:30:03.178Z,10.14
2023-05-05T20:32:46.614Z,10.15
2023-05-05T20:35:29.753Z,10.18
2023-05-05T20:38:14.977Z,10.11
2023-05-05T20:40:58.133Z,10.02
2023-05-05T20:43:43.080Z,9.97
2023-05-05T20:46:26.436Z,9.95
2023-05-05T20:49:09.560Z,9.95
2023-05-05T20:51:52.964Z,9.83
2023-05-05T20:54:39.023Z,9.85
2023-05-05T20:57:22.199Z,9.74
2023-05-05T21:00:09.026Z,9.65
2023-05-05T21:02:57.091Z,9.72
2023-05-05T21:05:40.984Z,9.65
2023-05-05T21:08:24.072Z,9.61
2023-05-05T21:11:10.160Z,9.67
2023-05-05T21:13:53.891Z,9.66
2023-05-05T21:16:38.432Z,9.59
2023-05-05T21:19:21.642Z,9.55
2023-05-05T21:22:05.408Z,9.60
2023-05-05T21:24:48.672Z,9.68
2023-05-05T21:27:32.318Z,9.64
2023-05-05T21:30:16.618Z,9.66
2023-05-05T21:33:01.864Z,9.55
2023-05-05T21:35:45.114Z,9.53
2023-05-05T21:38:28.314Z,9.53
2023-05-05T21:41:11.500Z,9.51
2023-05-05T21:43:54.987Z,9.43
2023-05-05T21:46:38.729Z,9.40
2023-05-05T21:49:23.509Z,9.34
2023-05-05T21:52:06.781Z,9.26
2023-05-05T21:54:50.208Z,9.26
2023-05-05T21:57:34.138Z,9.15
2023-05-05T22:00:17.874Z,9.08
2023-05-05T22:03:01.002Z,9.07
2023-05-05T22:05:46.280Z,9.06
2023-05-05T22:08:29.440Z,8.97
2023-05-05T22:11:12.504Z,8.94
2023-05-05T22:13:56.511Z,8.91
2023-05-05T22:16:40.062Z,8.85
2023-05-05T22:19:23.728Z,8.82
2023-05-05T22:22:08.743Z,8.82
2023-05-05T22:24:51.907Z,8.75
2023-05-05T22:27:35.534Z,8.77
2023-05-05T22:30:18.817Z,8.72
2023-05-05T22:33:02.272Z,8.77
2023-05-05T22:35:46.358Z,8.73
2023-05-05T22:38:31.002Z,8.76
2023-05-05T22:41:14.252Z,8.67
2023-05-05T22:43:58.148Z,8.58
2023-05-05T22:46:42.209Z,8.60
2023-05-05T22:49:25.834Z,8.59
2023-05-05T22:52:09.223Z,8.52
2023-05-05T22:54:53.844Z,8.59
2023-05-05T22:57:37.301Z,8.53
2023-05-05T23:00:20.904Z,8.56
2023-05-05T23:03:04.169Z,8.54
2023-05-05T23:05:47.362Z,8.48
2023-05-05T23:08:30.553Z,8.49
2023-05-05T23:11:15.797Z,8.44
2023-05-05T23:13:59.176Z,8.34
2023-05-05T23:16:42.943Z,8.26
2023-05-05T23:19:26.470Z,8.30
2023-05-05T23:22:10.231Z,8.32
2023-05-05T23:24:53.452Z,8.25
2023-05-05T23:27:39.846Z,8.21
2023-05-05T23:30:23.171Z,8.25
2023-05-05T23:33:06.307Z,8.25
2023-05-05T23:35:49.851Z,8.25
2023-05-05T23:38:33.002Z,8.23
2023-05-05T23:41:16.433Z,8.21
2023-05-05T23:44:01.020Z,8.23
2023-05-05T23:46:44.298Z,8.20
2023-05-05T23:49:27.422Z,8.25
2023-05-05T23:52:10.822Z,8.20
2023-05-05T23:54:54.014Z,8.17
2023-05-05T23:57:37.638Z,8.21
